Time;durP1;ratioP1;P1;durP2;ratioP2;P2;SDS_P1;SDS_P2;PMS_P1;PMS_P2;Temp;Humidity;BMP_temperature;BMP_pressure;BME280_temperature;BME280_humidity;BME280_pressure;Samples;Min_cycle;Max_cycle;Signal;HPM_P1;HPM_P2
2021/12/27 00:00:41;;;;;;;13.33;11.03;;;;;;;4.87;66.00;96948.13;8444194;28;20230;-67
2021/12/27 00:04:45;;;;;;;12.37;11.07;;;;;;;4.61;67.05;96936.31;8449023;28;20449;-66
2021/12/27 00:08:50;;;;;;;12.57;11.27;;;;;;;4.88;65.73;96929.28;8448958;28;20226;-67
2021/12/27 00:12:53;;;;;;;14.00;11.17;;;;;;;5.20;64.89;96917.78;8448719;28;20237;-67
2021/12/27 00:16:56;;;;;;;12.13;10.80;;;;;;;5.07;65.15;96920.00;8446659;28;20413;-67
2021/12/27 00:20:59;;;;;;;12.07;10.77;;;;;;;4.80;65.93;96919.34;8448554;28;20233;-67
2021/12/27 00:25:04;;;;;;;13.50;11.47;;;;;;;4.63;66.95;96914.00;8448429;28;20222;-67
2021/12/27 00:29:07;;;;;;;12.73;11.23;;;;;;;4.95;66.20;96914.50;8448053;28;20226;-67
2021/12/27 00:33:10;;;;;;;11.80;10.60;;;;;;;4.86;66.29;96915.69;8445535;28;20217;-67
2021/12/27 00:37:13;;;;;;;13.20;11.47;;;;;;;4.80;66.38;96909.06;8446248;28;20233;-67
2021/12/27 00:41:18;;;;;;;11.87;10.60;;;;;;;4.90;65.76;96900.13;8447529;28;20235;-67
2021/12/27 00:45:21;;;;;;;14.27;11.47;;;;;;;4.74;67.08;96909.31;8447820;28;20226;-67
2021/12/27 00:49:24;;;;;;;12.20;10.97;;;;;;;5.02;65.17;96895.41;8447615;28;20226;-67
2021/12/27 00:53:27;;;;;;;13.00;11.70;;;;;;;4.53;67.82;96895.53;8445778;28;20250;-68
2021/12/27 00:57:32;;;;;;;14.47;11.83;;;;;;;5.06;66.13;96886.69;8447379;28;20233;-67
2021/12/27 01:01:35;;;;;;;13.67;11.40;;;;;;;4.82;66.37;96891.06;8447320;28;20233;-67
2021/12/27 01:05:39;;;;;;;14.03;12.13;;;;;;;4.76;67.33;96889.56;8447201;28;20497;-67
2021/12/27 01:09:55;;;;;;;13.13;11.83;;;;;;;4.73;67.80;96902.50;8444636;28;20221;-68
2021/12/27 01:14:04;;;;;;;13.10;11.80;;;;;;;5.01;67.14;96894.56;8445341;28;20237;-67
2021/12/27 01:18:08;;;;;;;13.37;11.60;;;;;;;5.04;65.80;96896.16;8446629;28;20233;-68
2021/12/27 01:22:11;;;;;;;12.90;11.20;;;;;;;5.29;66.07;96896.88;8446980;28;20222;-69
2021/12/27 01:26:14;;;;;;;12.57;11.27;;;;;;;5.38;66.01;96892.28;8446347;28;20233;-68
2021/12/27 01:30:19;;;;;;;13.93;11.63;;;;;;;5.21;66.22;96893.78;8446575;28;20222;-68
2021/12/27 01:34:26;;;;;;;13.50;11.73;;;;;;;5.08;67.32;96893.44;8446238;28;20250;-67
2021/12/27 01:38:28;;;;;;;14.57;12.50;;;;;;;4.88;68.29;96894.22;8445189;28;20421;-67
2021/12/27 01:42:32;;;;;;;14.90;12.77;;;;;;;5.00;67.39;96892.06;8445734;28;20222;-67
2021/12/27 01:46:36;;;;;;;12.93;11.53;;;;;;;4.95;68.08;96884.56;8448516;28;20190;-67
2021/12/27 01:50:41;;;;;;;14.27;12.83;;;;;;;5.00;67.84;96887.75;8446377;28;20382;-67
2021/12/27 01:54:44;;;;;;;13.60;12.30;;;;;;;5.31;66.86;96890.84;8445037;28;20226;-68
2021/12/27 01:58:48;;;;;;;14.20;12.43;;;;;;;5.36;66.42;96888.94;8446009;28;20410;-68
2021/12/27 02:02:53;;;;;;;15.63;13.90;;;;;;;5.03;67.34;96876.56;8446217;28;20228;-68
2021/12/27 02:06:56;;;;;;;13.97;12.57;;;;;;;5.08;68.29;96880.63;8443960;28;20233;-68
2021/12/27 02:10:59;;;;;;;15.10;13.50;;;;;;;5.23;67.68;96879.13;8445999;28;20222;-68
2021/12/27 02:15:07;;;;;;;15.67;14.00;;;;;;;5.06;68.13;96868.72;8445828;28;20232;-67
2021/12/27 02:19:11;;;;;;;16.63;14.77;;;;;;;5.16;67.85;96869.19;8443370;28;20253;-67
2021/12/27 02:23:17;;;;;;;18.00;16.10;;;;;;;4.88;68.93;96865.16;8449419;28;20559;-67
2021/12/27 02:27:20;;;;;;;16.67;14.97;;;;;;;5.12;67.93;96876.16;8452217;28;20252;-67
2021/12/27 02:31:23;;;;;;;16.20;14.60;;;;;;;4.99;68.14;96878.41;8452234;28;20549;-67
2021/12/27 02:35:27;;;;;;;17.70;15.87;;;;;;;4.78;69.60;96877.50;8439247;28;20308;-67
2021/12/27 02:39:32;;;;;;;17.83;16.00;;;;;;;5.11;68.15;96874.50;8437095;28;20521;-67
2021/12/27 02:43:41;;;;;;;17.27;15.43;;;;;;;4.86;68.82;96872.91;8449469;28;20421;-67
2021/12/27 02:47:44;;;;;;;18.13;16.23;;;;;;;5.14;68.13;96870.97;8451602;28;20218;-66
2021/12/27 02:51:47;;;;;;;19.03;17.03;;;;;;;4.89;68.99;96871.94;8451599;28;20521;-67
2021/12/27 02:55:53;;;;;;;18.20;16.30;;;;;;;4.93;67.88;96873.53;8451498;28;20230;-68
2021/12/27 02:59:57;;;;;;;18.37;16.47;;;;;;;5.05;67.96;96865.31;8451319;28;20234;-68
2021/12/27 03:04:00;;;;;;;19.35;17.42;;;;;;;5.24;67.77;96867.16;8450765;28;20415;-68
2021/12/27 03:08:04;;;;;;;18.50;16.50;;;;;;;5.19;67.43;96859.63;8450714;28;20251;-67
2021/12/27 03:12:12;;;;;;;18.13;16.23;;;;;;;4.85;68.93;96857.56;8450062;28;20241;-68
2021/12/27 03:16:16;;;;;;;18.63;16.77;;;;;;;5.15;68.53;96852.97;8448800;28;20226;-67
2021/12/27 03:20:22;;;;;;;19.37;17.37;;;;;;;5.03;67.91;96853.47;8450375;28;20226;-66
2021/12/27 03:24:25;;;;;;;19.33;16.50;;;;;;;5.56;66.56;96853.00;8450265;28;20226;-66
2021/12/27 03:28:29;;;;;;;19.20;17.03;;;;;;;5.11;67.57;96853.97;8435641;28;20251;-67
2021/12/27 03:32:33;;;;;;;18.93;17.03;;;;;;;5.05;68.44;96859.38;8432876;28;20237;-67
2021/12/27 03:36:39;;;;;;;19.17;16.57;;;;;;;5.04;68.98;96845.69;8433227;28;20242;-66
2021/12/27 03:40:43;;;;;;;18.63;16.67;;;;;;;5.44;66.94;96853.50;8447625;28;20223;-66
2021/12/27 03:44:47;;;;;;;19.50;17.40;;;;;;;5.08;68.12;96849.81;8447538;28;20226;-66
2021/12/27 03:48:50;;;;;;;20.63;18.53;;;;;;;4.71;69.08;96847.84;8449628;28;20280;-66
2021/12/27 03:52:54;;;;;;;20.10;18.00;;;;;;;4.75;69.82;96840.88;8449585;28;20564;-66
2021/12/27 03:56:57;;;;;;;19.80;17.70;;;;;;;5.05;68.75;96847.38;8446757;28;20560;-66
2021/12/27 04:01:13;;;;;;;19.63;17.63;;;;;;;5.01;68.50;96845.00;8448390;28;20234;-66
2021/12/27 04:05:17;;;;;;;19.80;17.63;;;;;;;4.85;69.57;96831.91;8462110;28;20478;-66
2021/12/27 04:09:20;;;;;;;20.73;18.50;;;;;;;4.69;70.08;96836.81;8464313;28;20230;-66
2021/12/27 04:13:24;;;;;;;21.57;19.27;;;;;;;4.65;69.29;96842.97;8462581;28;20497;-67
2021/12/27 04:17:28;;;;;;;21.43;19.20;;;;;;;4.55;70.53;96844.19;8463230;28;20241;-67
2021/12/27 04:21:32;;;;;;;20.53;18.37;;;;;;;4.22;72.73;96842.84;8467179;28;20245;-66
2021/12/27 04:25:35;;;;;;;21.17;18.90;;;;;;;4.59;70.74;96825.22;8468681;28;20236;-66
2021/12/27 04:29:38;;;;;;;19.83;17.80;;;;;;;4.53;70.80;96823.75;8459837;28;20226;-67
2021/12/27 04:33:43;;;;;;;19.73;17.63;;;;;;;4.98;69.65;96837.41;8456305;28;20222;-66
2021/12/27 04:37:46;;;;;;;18.73;16.80;;;;;;;5.29;68.79;96834.41;8460101;28;20229;-67
2021/12/27 04:41:50;;;;;;;18.93;16.93;;;;;;;4.78;69.75;96840.75;8449464;28;20418;-66
2021/12/27 04:45:54;;;;;;;19.53;17.57;;;;;;;4.86;70.06;96846.44;8458690;28;20228;-66
2021/12/27 04:49:59;;;;;;;19.40;17.30;;;;;;;5.17;68.54;96833.19;8440318;28;20218;-66
2021/12/27 04:54:02;;;;;;;18.50;16.50;;;;;;;5.05;69.03;96831.13;8445571;28;20233;-66
2021/12/27 04:58:08;;;;;;;19.53;17.47;;;;;;;5.13;69.16;96835.97;8446556;28;20222;-66
2021/12/27 05:02:11;;;;;;;21.53;19.27;;;;;;;5.00;69.33;96822.78;8439617;28;20507;-66
2021/12/27 05:06:17;;;;;;;18.57;16.63;;;;;;;5.13;68.82;96823.13;8477896;28;20236;-67
2021/12/27 05:10:19;;;;;;;20.53;18.17;;;;;;;5.19;68.62;96816.00;8467181;28;20226;-66
2021/12/27 05:14:23;;;;;;;20.70;18.50;;;;;;;5.19;68.53;96818.56;8479700;28;20412;-66
2021/12/27 05:18:26;;;;;;;20.60;18.43;;;;;;;5.10;69.13;96816.38;8477286;28;20226;-66
2021/12/27 05:22:30;;;;;;;20.60;18.40;;;;;;;5.09;69.31;96809.59;8476101;28;20236;-67
2021/12/27 05:26:33;;;;;;;22.40;19.63;;;;;;;5.07;70.05;96812.22;8475245;28;20234;-66
2021/12/27 05:30:36;;;;;;;20.90;18.40;;;;;;;5.23;69.05;96809.84;8475524;28;20559;-66
2021/12/27 05:34:39;;;;;;;20.87;18.70;;;;;;;4.98;69.54;96804.88;8472924;28;20221;-67
2021/12/27 05:38:46;;;;;;;19.80;17.73;;;;;;;5.21;68.69;96819.34;8474446;28;20527;-67
2021/12/27 05:42:50;;;;;;;21.20;19.00;;;;;;;4.97;70.59;96807.50;8470349;28;20241;-66
2021/12/27 05:46:54;;;;;;;21.30;19.00;;;;;;;5.32;68.65;96818.91;8451233;28;20226;-66
2021/12/27 05:50:57;;;;;;;23.10;20.70;;;;;;;4.81;70.76;96802.16;8451754;28;20218;-66
2021/12/27 05:55:02;;;;;;;23.17;20.70;;;;;;;4.67;71.44;96806.09;8478606;28;20237;-66
2021/12/27 05:59:05;;;;;;;22.00;19.03;;;;;;;5.04;70.45;96816.63;8473311;28;20221;-66
2021/12/27 06:03:08;;;;;;;23.47;19.80;;;;;;;5.29;68.85;96813.88;8463392;28;20220;-67
2021/12/27 06:07:11;;;;;;;23.00;20.53;;;;;;;5.05;69.16;96800.34;8472883;28;20432;-66
2021/12/27 06:11:15;;;;;;;24.27;21.57;;;;;;;5.08;69.75;96800.19;8455624;28;20222;-66
2021/12/27 06:15:18;;;;;;;22.73;20.40;;;;;;;4.73;70.89;96797.34;8456772;28;20425;-67
2021/12/27 06:19:21;;;;;;;24.70;21.13;;;;;;;4.96;70.40;96796.41;8464370;28;20319;-66
2021/12/27 06:23:25;;;;;;;22.43;20.00;;;;;;;5.20;70.03;96798.88;8461669;28;20226;-66
2021/12/27 06:27:29;;;;;;;24.27;21.67;;;;;;;4.97;70.23;96803.22;8461296;28;20248;-66
2021/12/27 06:31:32;;;;;;;23.57;20.70;;;;;;;5.27;69.46;96803.69;8461907;28;20229;-66
2021/12/27 06:35:35;;;;;;;22.97;20.47;;;;;;;5.23;69.65;96804.69;8458185;28;20556;-66
2021/12/27 06:39:38;;;;;;;24.53;21.93;;;;;;;4.97;70.57;96808.34;8462523;28;20225;-66
2021/12/27 06:43:43;;;;;;;28.20;24.90;;;;;;;5.20;69.40;96812.56;8460987;28;20555;-67
2021/12/27 06:47:46;;;;;;;24.67;21.97;;;;;;;5.25;69.53;96820.91;8463796;28;20233;-67
2021/12/27 06:51:49;;;;;;;23.10;20.60;;;;;;;5.59;68.15;96831.47;8460359;28;20234;-66
2021/12/27 06:55:52;;;;;;;22.60;20.23;;;;;;;5.64;67.38;96827.00;8458256;28;20505;-66
2021/12/27 06:59:56;;;;;;;24.17;21.57;;;;;;;5.68;67.63;96816.50;8463843;28;20221;-66
2021/12/27 07:03:59;;;;;;;24.07;21.57;;;;;;;5.44;68.38;96815.81;8445663;28;20230;-67
2021/12/27 07:08:02;;;;;;;24.10;21.50;;;;;;;5.09;69.51;96812.97;8445786;28;20226;-66
2021/12/27 07:12:07;;;;;;;24.40;21.77;;;;;;;4.79;70.97;96812.47;8448034;28;20426;-67
2021/12/27 07:16:11;;;;;;;25.90;22.47;;;;;;;5.01;71.04;96809.91;8447071;28;20226;-66
2021/12/27 07:20:14;;;;;;;26.93;23.37;;;;;;;4.85;70.84;96812.22;8448170;28;20347;-66
2021/12/27 07:24:17;;;;;;;29.40;23.20;;;;;;;5.16;69.68;96808.44;8449622;28;20218;-66
2021/12/27 07:28:20;;;;;;;27.37;23.47;;;;;;;5.03;70.74;96802.97;8449511;28;20237;-66
2021/12/27 07:32:24;;;;;;;26.67;22.97;;;;;;;5.11;70.25;96801.81;8449621;28;20241;-66
2021/12/27 07:36:28;;;;;;;29.43;25.13;;;;;;;5.11;70.28;96805.22;8449941;28;20246;-66
2021/12/27 07:40:31;;;;;;;27.60;23.30;;;;;;;4.91;71.29;96808.56;8447945;28;20230;-67
2021/12/27 07:44:35;;;;;;;29.03;24.87;;;;;;;5.01;70.99;96815.03;8448293;28;20241;-66
2021/12/27 07:48:39;;;;;;;34.23;26.23;;;;;;;4.84;71.24;96814.88;8435548;28;20409;-67
2021/12/27 07:52:42;;;;;;;36.30;29.00;;;;;;;5.06;71.36;96808.00;8469165;28;20234;-67
2021/12/27 07:56:45;;;;;;;35.37;30.20;;;;;;;5.28;70.72;96802.78;8464156;28;20226;-67
2021/12/27 08:00:50;;;;;;;33.13;26.13;;;;;;;4.84;71.85;96791.78;8483269;28;20240;-66
2021/12/27 08:04:55;;;;;;;31.97;27.47;;;;;;;5.20;70.84;96798.88;8472536;28;20229;-67
2021/12/27 08:08:58;;;;;;;32.97;27.80;;;;;;;5.14;71.57;96792.28;8467096;28;20230;-66
2021/12/27 08:13:02;;;;;;;32.13;25.13;;;;;;;5.41;70.64;96810.00;8473639;28;20221;-67
2021/12/27 08:17:05;;;;;;;34.57;27.47;;;;;;;5.28;70.18;96804.53;8466897;28;20230;-66
2021/12/27 08:21:10;;;;;;;31.97;26.17;;;;;;;4.93;72.42;96805.97;8440915;28;20411;-66
2021/12/27 08:25:13;;;;;;;39.70;29.83;;;;;;;4.97;73.19;96808.34;8448464;28;20525;-67
2021/12/27 08:29:16;;;;;;;39.27;28.80;;;;;;;4.79;73.45;96809.91;8448402;28;20241;-66
2021/12/27 08:33:20;;;;;;;38.13;28.37;;;;;;;5.06;73.12;96790.03;8446151;28;20233;-66
2021/12/27 08:37:24;;;;;;;37.77;28.13;;;;;;;5.02;72.79;96790.19;8448841;28;20234;-66
2021/12/27 08:41:28;;;;;;;40.90;28.93;;;;;;;5.03;72.93;96779.88;8448687;28;20250;-66
2021/12/27 08:45:31;;;;;;;38.60;29.60;;;;;;;4.74;74.38;96787.91;8449098;28;20238;-65
2021/12/27 08:49:34;;;;;;;36.20;27.63;;;;;;;5.10;72.69;96788.13;8448598;28;20240;-66
2021/12/27 08:53:59;;;;;;;37.17;27.77;;;;;;;5.05;73.75;96795.22;8448403;28;20256;-66
2021/12/27 08:58:02;;;;;;;47.80;29.67;;;;;;;5.11;73.14;96796.69;8448510;28;20468;-67
2021/12/27 09:02:05;;;;;;;37.00;28.03;;;;;;;5.21;73.59;96788.53;8448686;28;20241;-66
2021/12/27 09:06:09;;;;;;;39.10;29.77;;;;;;;4.99;74.13;96798.00;8447544;28;20234;-66
2021/12/27 09:10:13;;;;;;;42.47;28.00;;;;;;;4.90;74.31;96791.53;8447851;28;20236;-66
2021/12/27 09:14:16;;;;;;;38.47;28.57;;;;;;;5.22;73.27;96797.09;8448204;28;20238;-66
2021/12/27 09:18:19;;;;;;;49.60;29.40;;;;;;;5.12;73.70;96790.66;8448275;28;20233;-66
2021/12/27 09:22:22;;;;;;;49.37;28.70;;;;;;;4.99;74.59;96780.91;8447612;28;20238;-66
2021/12/27 09:26:26;;;;;;;57.67;31.67;;;;;;;5.19;74.09;96784.38;8447643;28;20238;-66
2021/12/27 09:30:29;;;;;;;60.27;32.00;;;;;;;4.78;77.02;96787.75;8446661;28;20229;-66
2021/12/27 09:34:33;;;;;;;65.60;33.60;;;;;;;4.99;75.66;96780.03;8447371;28;20544;-66
2021/12/27 09:38:36;;;;;;;71.23;33.30;;;;;;;5.14;74.86;96781.16;8446953;28;20238;-66
2021/12/27 09:42:40;;;;;;;62.70;32.90;;;;;;;4.98;75.95;96794.63;8447326;28;20238;-66
2021/12/27 09:46:43;;;;;;;66.00;33.60;;;;;;;4.66;77.08;96775.38;8447395;28;20234;-66
2021/12/27 09:50:49;;;;;;;48.83;32.03;;;;;;;5.28;75.45;96776.28;8447044;28;20242;-66
2021/12/27 09:54:52;;;;;;;43.13;30.20;;;;;;;5.33;74.02;96786.34;8446182;28;20236;-66
2021/12/27 09:58:57;;;;;;;55.17;33.83;;;;;;;4.93;75.86;96776.03;8453539;28;20241;-66
2021/12/27 10:03:00;;;;;;;43.40;30.17;;;;;;;5.01;75.89;96766.28;8480303;28;20240;-66
2021/12/27 10:07:04;;;;;;;43.00;30.77;;;;;;;5.19;74.45;96764.66;8479670;28;20241;-66
2021/12/27 10:11:07;;;;;;;39.17;28.67;;;;;;;5.21;74.33;96780.84;8479450;28;20220;-67
2021/12/27 10:15:14;;;;;;;39.63;28.90;;;;;;;5.50;73.99;96768.50;8479815;28;20256;-66
2021/12/27 10:19:19;;;;;;;39.33;28.10;;;;;;;5.38;73.92;96781.88;8480075;28;20233;-66
2021/12/27 10:23:23;;;;;;;40.53;29.33;;;;;;;5.62;73.16;96774.84;8480147;28;20233;-67
2021/12/27 10:27:33;;;;;;;38.40;29.33;;;;;;;5.39;74.27;96768.97;8480156;28;20240;-66
2021/12/27 10:31:52;;;;;;;39.33;29.60;;;;;;;5.38;74.38;96762.16;8480147;28;20236;-66
2021/12/27 10:35:58;;;;;;;41.03;28.53;;;;;;;5.65;73.06;96772.13;8479445;28;20532;-66
2021/12/27 10:40:02;;;;;;;46.30;30.00;;;;;;;5.31;74.36;96765.88;8479471;28;20229;-66
2021/12/27 10:44:06;;;;;;;41.53;29.90;;;;;;;5.20;75.11;96761.22;8484446;28;20230;-66
2021/12/27 10:48:23;;;;;;;39.90;28.97;;;;;;;5.40;75.21;96756.97;8448990;28;20246;-66
2021/12/27 10:52:44;;;;;;;41.70;30.33;;;;;;;5.25;75.02;96755.88;8468274;28;20233;-66
2021/12/27 10:56:54;;;;;;;44.57;30.57;;;;;;;5.36;75.36;96742.59;8469649;28;20426;-66
2021/12/27 11:01:00;;;;;;;43.47;29.57;;;;;;;5.63;74.61;96751.66;8467971;28;20226;-67
2021/12/27 11:05:14;;;;;;;39.33;28.87;;;;;;;5.60;74.08;96746.66;8467778;28;20258;-66
2021/12/27 11:09:17;;;;;;;52.80;30.93;;;;;;;5.37;74.82;96741.66;8439914;28;20229;-67
2021/12/27 11:13:21;;;;;;;42.37;29.67;;;;;;;5.56;75.04;96727.16;8450676;28;20263;-67
2021/12/27 11:17:25;;;;;;;42.27;28.33;;;;;;;5.82;73.63;96717.44;8450695;28;20449;-66
2021/12/27 11:21:35;;;;;;;38.80;27.70;;;;;;;5.46;75.07;96729.31;8450693;28;20241;-66
2021/12/27 11:25:40;;;;;;;37.40;26.77;;;;;;;5.99;73.24;96716.72;8450744;28;20230;-68
2021/12/27 11:29:43;;;;;;;45.07;27.10;;;;;;;5.76;73.61;96713.41;8450918;28;20276;-68
2021/12/27 11:33:56;;;;;;;39.70;27.73;;;;;;;5.65;73.93;96718.19;8450417;28;20230;-69
2021/12/27 11:38:01;;;;;;;38.47;27.10;;;;;;;5.51;74.56;96705.97;8450519;28;20238;-68
2021/12/27 11:42:06;;;;;;;41.13;31.17;;;;;;;5.47;74.60;96686.47;8450700;28;20230;-68
2021/12/27 11:46:09;;;;;;;36.77;26.10;;;;;;;5.84;73.23;96705.34;8450195;28;20408;-68
2021/12/27 11:50:14;;;;;;;33.53;24.63;;;;;;;5.87;72.27;96708.63;8450599;28;20233;-69
2021/12/27 11:54:29;;;;;;;34.63;26.20;;;;;;;5.98;72.13;96704.78;8450080;28;20252;-69
2021/12/27 11:58:35;;;;;;;34.50;24.97;;;;;;;5.81;73.48;96705.50;8450392;28;20435;-68
2021/12/27 12:02:38;;;;;;;33.77;25.43;;;;;;;6.05;72.34;96694.16;8450597;28;20614;-66
2021/12/27 12:06:44;;;;;;;34.60;26.00;;;;;;;6.26;71.07;96682.03;8450252;28;20257;-68
2021/12/27 12:10:52;;;;;;;33.33;25.23;;;;;;;5.59;73.71;96675.63;8450541;28;20240;-69
2021/12/27 12:14:57;;;;;;;38.43;27.70;;;;;;;6.09;71.83;96670.84;8450205;28;20230;-69
2021/12/27 12:19:09;;;;;;;47.87;34.20;;;;;;;5.79;72.30;96661.91;8450337;28;20238;-69
2021/12/27 12:23:12;;;;;;;47.03;35.40;;;;;;;5.79;72.43;96666.22;8449522;28;20316;-70
2021/12/27 12:27:17;;;;;;;45.13;31.83;;;;;;;5.56;72.96;96670.66;8449684;28;20248;-70
2021/12/27 12:31:20;;;;;;;39.07;29.30;;;;;;;5.91;71.82;96667.38;8449584;28;20238;-70
2021/12/27 12:35:32;;;;;;;35.53;27.80;;;;;;;5.55;72.15;96675.84;8448927;28;20230;-69
2021/12/27 12:39:39;;;;;;;37.07;27.50;;;;;;;5.24;73.16;96666.94;8448421;28;20242;-69
2021/12/27 12:43:45;;;;;;;34.80;27.13;;;;;;;5.68;72.82;96667.53;8448525;28;20230;-69
2021/12/27 12:47:48;;;;;;;37.37;28.00;;;;;;;5.35;73.26;96669.03;8448760;28;20241;-69
2021/12/27 12:51:53;;;;;;;33.73;25.87;;;;;;;5.62;73.71;96659.28;8448510;28;20427;-63
2021/12/27 12:56:00;;;;;;;35.77;26.27;;;;;;;5.24;73.91;96656.69;8446543;28;20229;-63
2021/12/27 13:00:05;;;;;;;36.30;26.77;;;;;;;5.20;73.58;96652.59;8447359;28;20225;-63
2021/12/27 13:04:08;;;;;;;34.27;24.97;;;;;;;5.58;72.90;96648.31;8446729;28;20297;-63
2021/12/27 13:08:12;;;;;;;41.97;26.10;;;;;;;5.52;72.80;96648.59;8445958;28;20233;-63
2021/12/27 13:12:22;;;;;;;35.73;26.60;;;;;;;5.46;72.65;96648.84;8446608;28;20226;-63
2021/12/27 13:16:31;;;;;;;34.93;26.20;;;;;;;5.53;72.17;96637.41;8438156;28;20233;-64
2021/12/27 13:20:36;;;;;;;37.17;27.83;;;;;;;5.40;73.19;96646.56;8448128;28;20407;-65
2021/12/27 13:24:52;;;;;;;30.97;24.33;;;;;;;5.75;70.96;96650.09;8448047;28;20241;-65
2021/12/27 13:28:55;;;;;;;31.47;24.50;;;;;;;5.67;72.23;96647.03;8447605;28;20552;-65
2021/12/27 13:33:00;;;;;;;33.00;25.07;;;;;;;5.15;73.39;96650.19;8447935;28;20529;-65
2021/12/27 13:37:03;;;;;;;31.03;24.83;;;;;;;5.42;72.69;96655.84;8447822;28;20229;-64
2021/12/27 13:41:08;;;;;;;31.23;24.30;;;;;;;5.33;73.12;96661.41;8447124;28;20237;-64
2021/12/27 13:45:13;;;;;;;32.60;23.27;;;;;;;5.52;72.89;96663.16;8446737;28;20222;-64
2021/12/27 13:49:18;;;;;;;30.93;22.43;;;;;;;5.46;73.00;96652.25;8447098;28;20245;-64
2021/12/27 13:53:22;;;;;;;30.27;22.37;;;;;;;5.67;71.50;96650.47;8447290;28;20292;-65
2021/12/27 13:57:32;;;;;;;25.43;21.00;;;;;;;5.27;73.15;96630.84;8447098;28;20245;-64
2021/12/27 14:01:35;;;;;;;27.53;21.03;;;;;;;5.11;74.44;96642.72;8426719;28;20230;-65
2021/12/27 14:05:40;;;;;;;25.67;19.13;;;;;;;5.40;72.99;96652.50;8446925;28;20303;-65
2021/12/27 14:09:43;;;;;;;21.20;17.30;;;;;;;5.45;73.14;96647.19;8446791;28;20240;-65
2021/12/27 14:13:48;;;;;;;21.63;17.60;;;;;;;5.16;74.17;96651.03;8430588;28;20233;-65
2021/12/27 14:17:52;;;;;;;25.63;18.30;;;;;;;5.32;73.04;96659.72;8415753;28;20234;-65
2021/12/27 14:22:00;;;;;;;25.87;18.90;;;;;;;5.52;73.49;96652.88;8434265;28;20230;-65
2021/12/27 14:26:09;;;;;;;21.67;17.13;;;;;;;5.39;73.31;96657.75;8452472;28;20226;-65
2021/12/27 14:30:18;;;;;;;22.40;17.90;;;;;;;5.50;73.10;96660.63;8449102;28;20226;-65
2021/12/27 14:34:53;;;;;;;27.73;19.80;;;;;;;5.51;73.32;96649.47;8452170;28;20226;-65
2021/12/27 14:38:57;;;;;;;24.67;19.23;;;;;;;5.56;73.98;96642.41;8383128;28;20232;-65
2021/12/27 14:43:00;;;;;;;23.17;18.13;;;;;;;5.81;73.07;96634.41;8481687;28;20407;-65
2021/12/27 14:47:03;;;;;;;22.30;17.47;;;;;;;5.62;74.33;96631.84;8469994;28;20221;-65
2021/12/27 14:51:06;;;;;;;21.90;17.37;;;;;;;5.97;72.86;96637.09;8452792;28;20297;-65
2021/12/27 14:55:12;;;;;;;20.67;17.67;;;;;;;6.10;71.91;96633.97;8435317;28;20226;-65
2021/12/27 14:59:15;;;;;;;23.40;19.03;;;;;;;5.85;72.49;96643.63;8414263;28;20241;-65
2021/12/27 15:03:19;;;;;;;25.03;19.77;;;;;;;6.14;71.86;96640.63;8418065;28;20256;-65
2021/12/27 15:07:23;;;;;;;28.20;20.80;;;;;;;5.92;72.49;96656.19;8429086;28;20234;-65
2021/12/27 15:11:27;;;;;;;25.43;20.07;;;;;;;6.18;72.11;96663.53;8450862;28;20242;-65
2021/12/27 15:15:30;;;;;;;28.77;20.27;;;;;;;6.18;71.97;96660.97;8450032;28;20230;-64
2021/12/27 15:19:33;;;;;;;27.70;20.80;;;;;;;6.23;71.56;96663.34;8450300;28;20305;-64
2021/12/27 15:23:36;;;;;;;27.20;19.37;;;;;;;6.17;72.33;96659.31;8448150;28;20489;-64
2021/12/27 15:27:41;;;;;;;27.27;19.60;;;;;;;6.22;72.31;96659.91;8449342;28;20230;-64
2021/12/27 15:31:44;;;;;;;29.47;21.80;;;;;;;6.30;71.64;96667.25;8448986;28;20226;-64
2021/12/27 15:35:47;;;;;;;29.10;21.03;;;;;;;5.98;73.33;96673.94;8449361;28;20222;-64
2021/12/27 15:39:50;;;;;;;30.77;22.50;;;;;;;5.85;73.58;96664.19;8449358;28;20232;-64
2021/12/27 15:43:55;;;;;;;30.10;22.00;;;;;;;6.10;73.06;96668.22;8448253;28;20229;-65
2021/12/27 15:47:58;;;;;;;28.10;20.47;;;;;;;5.96;73.32;96666.28;8449743;28;20222;-64
2021/12/27 15:52:01;;;;;;;22.93;18.00;;;;;;;6.07;73.69;96678.63;8449703;28;20234;-64
2021/12/27 15:56:05;;;;;;;24.70;18.37;;;;;;;6.16;72.04;96665.34;8450419;28;20316;-64
2021/12/27 16:00:13;;;;;;;27.07;20.73;;;;;;;5.63;74.02;96666.06;8449295;28;20416;-65
2021/12/27 16:04:20;;;;;;;25.67;19.50;;;;;;;5.87;73.12;96664.94;8449492;28;20234;-63
2021/12/27 16:08:23;;;;;;;26.57;19.53;;;;;;;6.05;72.65;96659.88;8450014;28;20417;-64
2021/12/27 16:12:26;;;;;;;23.43;19.03;;;;;;;6.05;73.01;96658.16;8449932;28;20230;-63
2021/12/27 16:16:32;;;;;;;27.00;20.60;;;;;;;6.06;72.39;96659.00;8449459;28;20257;-72
2021/12/27 16:20:35;;;;;;;25.90;21.13;;;;;;;6.01;72.12;96659.19;8448889;28;20238;-73
2021/12/27 16:24:40;;;;;;;29.27;22.53;;;;;;;5.81;73.04;96657.53;8449062;28;20237;-73
2021/12/27 16:28:43;;;;;;;26.03;20.60;;;;;;;5.55;74.36;96650.19;8448963;28;20293;-73
2021/12/27 16:32:48;;;;;;;25.30;19.60;;;;;;;5.90;73.04;96655.41;8449206;28;20533;-73
2021/12/27 16:36:51;;;;;;;22.90;17.57;;;;;;;6.03;72.67;96674.53;8449154;28;20236;-73
2021/12/27 16:40:54;;;;;;;22.53;18.60;;;;;;;6.22;71.62;96677.91;8448704;28;20234;-73
2021/12/27 16:44:57;;;;;;;21.60;18.03;;;;;;;6.12;72.13;96676.69;8449451;28;20234;-73
2021/12/27 16:49:01;;;;;;;24.20;18.87;;;;;;;5.90;72.55;96679.38;8447892;28;20296;-73
2021/12/27 16:53:05;;;;;;;23.43;18.33;;;;;;;6.06;72.52;96675.22;8448020;28;20234;-73
2021/12/27 16:57:08;;;;;;;24.60;19.17;;;;;;;6.00;71.78;96670.38;8440004;28;20417;-73
2021/12/27 17:01:11;;;;;;;22.57;17.83;;;;;;;5.92;71.98;96672.47;8448874;28;20304;-73
2021/12/27 17:05:16;;;;;;;24.57;19.67;;;;;;;5.57;73.22;96663.78;8448241;28;20241;-73
2021/12/27 17:09:19;;;;;;;23.07;19.13;;;;;;;5.63;73.05;96668.63;8448181;28;20230;-73
2021/12/27 17:13:22;;;;;;;26.63;22.02;;;;;;;5.68;72.77;96682.09;8447634;28;20410;-72
2021/12/27 17:17:25;;;;;;;24.50;20.03;;;;;;;5.87;72.28;96677.78;8447214;28;20230;-73
2021/12/27 17:21:30;;;;;;;24.80;19.97;;;;;;;6.01;72.46;96684.06;8445263;28;20414;-73
2021/12/27 17:25:34;;;;;;;26.83;21.47;;;;;;;5.92;71.44;96684.44;8446936;28;20225;-73
2021/12/27 17:29:37;;;;;;;23.93;20.33;;;;;;;5.99;71.92;96680.72;8447100;28;20234;-73
2021/12/27 17:33:41;;;;;;;28.97;22.40;;;;;;;5.65;71.38;96677.94;8447444;28;20237;-72
2021/12/27 17:37:45;;;;;;;27.13;21.37;;;;;;;5.78;72.14;96682.53;8447670;28;20256;-72
2021/12/27 17:41:49;;;;;;;28.93;21.53;;;;;;;5.76;72.33;96679.19;8447351;28;20253;-72
2021/12/27 17:45:52;;;;;;;27.90;22.27;;;;;;;5.75;72.40;96682.66;8447484;28;20230;-73
2021/12/27 17:49:56;;;;;;;28.77;22.73;;;;;;;6.12;70.81;96671.53;8447268;28;20237;-73
2021/12/27 17:54:00;;;;;;;31.27;25.03;;;;;;;5.70;71.92;96670.03;8446963;28;20242;-73
2021/12/27 17:58:03;;;;;;;31.33;25.60;;;;;;;5.62;73.06;96672.13;8447505;28;20242;-72
2021/12/27 18:02:11;;;;;;;33.23;26.47;;;;;;;5.83;71.99;96685.72;8447500;28;20419;-73
2021/12/27 18:06:14;;;;;;;31.70;25.60;;;;;;;5.50;73.14;96688.88;8446563;28;20340;-72
2021/12/27 18:10:19;;;;;;;28.93;25.00;;;;;;;5.95;69.61;96690.31;8447266;28;20241;-72
2021/12/27 18:14:23;;;;;;;30.43;25.17;;;;;;;5.74;71.28;96689.53;8446666;28;20230;-72
2021/12/27 18:18:26;;;;;;;31.07;25.27;;;;;;;5.61;71.31;96676.41;8446662;28;20431;-72
2021/12/27 18:22:29;;;;;;;32.00;25.47;;;;;;;5.19;72.68;96679.97;8446816;28;20433;-73
2021/12/27 18:26:35;;;;;;;30.10;25.57;;;;;;;5.49;71.37;96692.38;8446006;28;20230;-73
2021/12/27 18:30:38;;;;;;;30.77;24.97;;;;;;;5.44;71.02;96690.00;8446309;28;20233;-73
2021/12/27 18:34:41;;;;;;;32.17;26.20;;;;;;;5.59;70.29;96697.94;8445805;28;20233;-74
2021/12/27 18:38:45;;;;;;;32.87;26.00;;;;;;;5.57;70.14;96687.72;8446186;28;20237;-73
2021/12/27 18:42:49;;;;;;;31.03;24.93;;;;;;;5.48;70.98;96682.97;8446285;28;20384;-74
2021/12/27 18:46:52;;;;;;;31.53;25.27;;;;;;;5.69;69.93;96691.47;8445909;28;20234;-73
2021/12/27 18:50:55;;;;;;;34.27;26.40;;;;;;;5.84;69.64;96695.06;8446114;28;20238;-73
2021/12/27 18:54:58;;;;;;;34.27;26.87;;;;;;;5.73;70.01;96687.03;8446197;28;20241;-73